METAR Data
IDs: Format: Raw Decoded Include TAF

Data at: 0854 UTC 26 Jan 2020

KTKV 260835Z AUTO 29007KT 10SM OVC006 M02/M03 A2984 RMK AO2 T10171027
KTKV 260815Z AUTO 29009KT 10SM OVC006 M01/M03 A2983 RMK AO2 T10151026
KTKV 260755Z AUTO 29005KT 10SM OVC006 M01/M02 A2983 RMK AO2 T10131025
KTKV 260735Z AUTO 29008KT 10SM OVC006 M01/M02 A2983 RMK AO2 T10121023
KTKV 260715Z AUTO 28005KT 10SM OVC006 M01/M02 A2983 RMK AO2 T10111021
KTKV 260655Z AUTO 29005KT 10SM OVC006 M01/M02 A2983 RMK AO2 T10111021
KTKV 260635Z AUTO 30004KT 10SM OVC006 M01/M02 A2983 RMK AO2 T10111021
KTKV 260615Z AUTO 30003KT 10SM OVC006 M01/M02 A2983 RMK AO2 T10111021
KTKV 260555Z AUTO 30003KT 10SM OVC008 M01/M02 A2983 RMK AO2 T10111022 11005 21012 400081012
KTKV 260535Z AUTO 31003KT 10SM OVC008 M01/M02 A2983 RMK AO2 T10121024
KTKV 260515Z AUTO 32005KT 10SM OVC010 M01/M02 A2983 RMK AO2 T10111025
KTKV 260455Z AUTO 31006KT 10SM OVC010 M01/M02 A2983 RMK AO2 T10111025
KTKV 260435Z AUTO 33005KT 10SM OVC010 M01/M02 A2983 RMK AO2 T10111025
KTKV 260415Z AUTO 31006KT 10SM OVC010 M01/M02 A2983 RMK AO2 T10111023
KTKV 260355Z AUTO 30004KT 10SM BKN010 OVC021 M01/M02 A2983 RMK AO2 T10111023
KTKV 260335Z AUTO 30005KT 10SM BKN010 OVC021 M01/M02 A2983 RMK AO2 T10111022
KTKV 260315Z AUTO 29004KT 7SM -SN OVC010 M01/M02 A2983 RMK AO2 T10101021
KTKV 260255Z AUTO 31003KT 7SM -SN OVC010 M01/M02 A2982 RMK AO2 T10101021
KTKV 260235Z AUTO 30005KT 5SM -SN OVC010 M01/M02 A2982 RMK AO2 T10101018
KTKV 260215Z AUTO 31004KT 5SM -SN OVC006 M01/M02 A2982 RMK AO2 T10081016
KTKV 260155Z AUTO 00000KT 4SM -SN OVC006 M01/M01 A2982 RMK AO2 T10071015
KTKV 260135Z AUTO 00000KT 2 1/2SM -SN OVC010 M01/M02 A2982 RMK AO2 T10071016
KTKV 260115Z AUTO 32004KT 3SM -SN OVC010 M01/M02 A2982 RMK AO2 T10061017
KTKV 260055Z AUTO 32004KT 5SM -SN OVC012 M01/M02 A2982 RMK AO2 T10071019
KTKV 260035Z AUTO 32004KT 10SM -SN SCT009 OVC015 M01/M02 A2982 RMK AO2 T10081020
KTKV 260015Z AUTO 31006KT 7SM -SN OVC012 00/M02 A2982 RMK AO2 T10051018
KTKV 252355Z AUTO 32004KT 5SM -SN OVC010 00/M01 A2982 RMK AO2 T10051015 10008 21005
KTKV 252335Z AUTO 32005KT 5SM -SN OVC010 00/M01 A2982 RMK AO2 T10031013
KTKV 252315Z AUTO 31006KT 10SM OVC010 00/M01 A2982 RMK AO2 T10031013
KTKV 252255Z AUTO 32005KT 3SM -SN BKN008 OVC012 00/M01 A2981 RMK AO2 T10011011
KTKV 252235Z AUTO 31005KT 7SM -SN BKN008 OVC014 00/M01 A2981 RMK AO2 T00001010
KTKV 252215Z AUTO 32003KT 2SM -SN OVC008 00/M01 A2981 RMK AO2 T00001012
KTKV 252155Z AUTO 31007KT 280V340 1 1/2SM -SN OVC006 00/M01 A2980 RMK AO2 T00001011
KTKV 252135Z AUTO 33006KT 3SM -SN OVC013 00/M01 A2980 RMK AO2 T00021012
KTKV 252115Z AUTO 32007KT 5SM -SN SCT008 OVC013 01/M01 A2979 RMK AO2 T00051010
KTKV 252055Z AUTO 32007KT 3SM -SN OVC010 01/M01 A2979 RMK AO2 T00061007
KTKV 252035Z AUTO 33005KT 10SM BKN010 OVC021 01/M01 A2979 RMK AO2 T00071008
KTKV 252015Z AUTO 32005KT 10SM OVC010 01/M01 A2979 RMK AO2 T00061008
KTKV 251955Z AUTO 33004KT 10SM OVC010 01/M01 A2979 RMK AO2 T00071008
KTKV 251935Z AUTO 32005KT 7SM OVC008 01/M01 A2979 RMK AO2 T00061007
KTKV 251915Z AUTO 30004KT 2 1/2SM BR BKN008 OVC013 01/M01 A2979 RMK AO2 T00051007
KTKV 251855Z AUTO 33005KT 7SM BKN008 OVC013 01/M01 A2979 RMK AO2 T00051008
KTKV 251835Z AUTO 32005KT 10SM SCT010 BKN013 OVC034 01/M01 A2980 RMK AO2 T00061010
KTKV 251815Z AUTO 34007KT 10SM BKN010 BKN024 OVC034 01/M01 A2980 RMK AO2 T00051010
KTKV 251755Z AUTO 33004KT 5SM BR OVC012 01/M01 A2981 RMK AO2 T00051011 10005 21012
KTKV 251735Z AUTO 33006KT 7SM OVC010 00/M01 A2981 RMK AO2 T00021012
KTKV 251715Z AUTO 35005KT 5SM BR OVC010 00/M01 A2981 RMK AO2 T00021012
KTKV 251655Z AUTO 36003KT 7SM BKN008 OVC013 00/M01 A2982 RMK AO2 T00001012
KTKV 251635Z AUTO 35004KT 2 1/2SM -SN OVC008 00/M01 A2981 RMK AO2 VIS 2V5 T00001015
KTKV 251615Z AUTO 35004KT 1 1/2SM -SN OVC008 00/M01 A2981 RMK AO2 T10021015
KTKV 251555Z AUTO 35005KT 3SM -SN OVC008 00/M02 A2981 RMK AO2 T10011016
KTKV 251535Z AUTO 36004KT 10SM OVC008 00/M02 A2981 RMK AO2 T10051017
KTKV 251515Z AUTO 33005KT 1 3/4SM -SN OVC008 00/M02 A2980 RMK AO2 T10051016
KTKV 251455Z AUTO 35004KT 1 1/2SM -SN OVC006 00/M02 A2981 RMK AO2 T10051017
KTKV 251435Z AUTO 34005KT 2SM -SN OVC006 M01/M02 A2981 RMK AO2 T10061016
KTKV 251415Z AUTO 34004KT 2 1/2SM -SN OVC006 M01/M02 A2981 RMK AO2 T10101016
KTKV 251355Z AUTO 33004KT 1SM -SN OVC006 M01/M02 A2981 RMK AO2 T10111018
KTKV 251335Z AUTO 34003KT 1 1/4SM -SN OVC006 M01/M02 A2980 RMK AO2 T10121020
KTKV 251315Z AUTO 33003KT 1 1/2SM -SN OVC006 M01/M02 A2980 RMK AO2 T10121020
KTKV 251255Z AUTO 33004KT 3SM -SN OVC008 M01/M02 A2979 RMK AO2 T10121020
KTKV 251235Z AUTO 33003KT 4SM -SN BKN005 BKN017 OVC047 M01/M02 A2979 RMK AO2 T10121020
KTKV 251215Z AUTO 33005KT 3SM -SN OVC005 M01/M02 A2979 RMK AO2 T10121020
KTKV 251155Z AUTO 34004KT 4SM -SN OVC005 M01/M02 A2979 RMK AO2 T10121020 11004 21012
KTKV 251135Z AUTO 33003KT 1 3/4SM -SN OVC005 M01/M02 A2979 RMK AO2 T10121019
KTKV 251115Z AUTO 33005KT 1 3/4SM -SN OVC005 M01/M02 A2979 RMK AO2 T10111019
KTKV 251055Z AUTO 34004KT 1 1/2SM -SN OVC005 M01/M02 A2979 RMK AO2 T10111018
KTKV 251035Z AUTO 33004KT 1 1/2SM -SN OVC007 M01/M02 A2979 RMK AO2 T10111018
KTKV 251015Z AUTO 34003KT 2 1/2SM -SN OVC007 M01/M02 A2979 RMK AO2 T10111018
KTKV 250955Z AUTO 34003KT 2 1/2SM -SN OVC007 M01/M02 A2978 RMK AO2 T10101017
KTKV 250935Z AUTO 34003KT 1 3/4SM -SN OVC007 M01/M02 A2979 RMK AO2 T10101017
KTKV 250915Z AUTO 35003KT 2 1/2SM -SN OVC007 M01/M02 A2979 RMK AO2 VIS 1 3/4V4 T10101016
KTKV 250855Z AUTO 33005KT 4SM -SN OVC005 M01/M01 A2979 RMK AO2 T10081015
KTKV 250835Z AUTO 34004KT 4SM -SN OVC005 M01/M01 A2979 RMK AO2 T10081015
KTKV 250815Z AUTO 35004KT 4SM -SN OVC005 M01/M01 A2980 RMK AO2 T10081015
KTKV 250755Z AUTO 00000KT 2 1/2SM -SN OVC005 M01/M01 A2980 RMK AO2 T10061013
KTKV 250735Z AUTO 35003KT 3SM -SN OVC005 M01/M01 A2980 RMK AO2 T10061012
KTKV 250715Z AUTO 36003KT 2SM -SN OVC005 00/M01 A2981 RMK AO2 T10051012
KTKV 250655Z AUTO 35003KT 2SM -SN OVC005 00/M01 A2982 RMK AO2 T10051012
KTKV 250635Z AUTO 36003KT 2 1/2SM -SN OVC005 00/M01 A2982 RMK AO2 T10051011
KTKV 250615Z AUTO 35003KT 3SM -SN OVC005 00/M01 A2983 RMK AO2 T10051011
KTKV 250555Z AUTO 34003KT 2SM -SN OVC005 00/M01 A2983 RMK AO2 T10041011 11001 21005 400051019
KTKV 250535Z AUTO 34003KT 1 3/4SM -SN OVC005 00/M01 A2984 RMK AO2 T10031011
KTKV 250515Z AUTO 01003KT 4SM -SN OVC005 00/M01 A2984 RMK AO2 T10031011
KTKV 250455Z AUTO 00000KT 10SM OVC005 00/M01 A2983 RMK AO2 T10021010
KTKV 250435Z AUTO 04004KT 10SM OVC007 00/M01 A2984 RMK AO2 T10021010
KTKV 250415Z AUTO 02004KT 10SM OVC007 00/M01 A2984 RMK AO2 T10021010
KTKV 250355Z AUTO 36004KT 10SM OVC007 00/M01 A2984 RMK AO2 T10031010
KTKV 250335Z AUTO 01004KT 5SM BR OVC005 00/M01 A2985 RMK AO2 T10031010
KTKV 250315Z AUTO 02004KT 3SM -SN OVC005 00/M01 A2985 RMK AO2 T10031010
KTKV 250255Z AUTO 00000KT 7SM OVC005 00/M01 A2986 RMK AO2 T10031010
KTKV 250235Z AUTO 36003KT 4SM -SN OVC005 00/M01 A2986 RMK AO2 T10031010
KTKV 250215Z AUTO 00000KT 5SM -SN OVC005 00/M01 A2987 RMK AO2 T10031010
KTKV 250155Z AUTO 00000KT 3SM -SN OVC005 00/M01 A2988 RMK AO2 T10021009
KTKV 250135Z AUTO 00000KT 3SM -SN OVC005 00/M01 A2989 RMK AO2 T10021008
KTKV 250115Z AUTO 00000KT 3SM RA OVC005 00/M01 A2989 RMK AO2 T10021008
KTKV 250055Z AUTO 00000KT 3SM RA OVC005 00/M01 A2989 RMK AO2 T10011007
KTKV 250035Z AUTO 00000KT 5SM UP BKN005 OVC010 00/M01 A2989 RMK AO2 T10021008
KTKV 250015Z AUTO 00000KT 5SM -DZ BKN005 BKN010 OVC015 00/M01 A2990 RMK AO2 T10021008
KTKV 242355Z AUTO 00000KT 5SM -SN OVC003 00/M01 A2990 RMK AO2 T10021008 10005 21002
KTKV 242335Z AUTO 00000KT 3SM -SN OVC003 00/M01 A2990 RMK AO2 T10021008
KTKV 242315Z AUTO 00000KT 2 1/2SM -SN BKN003 OVC028 00/M01 A2990 RMK AO2 T10011008
KTKV 242255Z AUTO 00000KT 1 3/4SM -SN OVC005 00/M01 A2990 RMK AO2 T10011010
KTKV 242235Z AUTO 04003KT 1 1/2SM -SN OVC007 00/M01 A2990 RMK AO2 T00001010
KTKV 242215Z AUTO 02003KT 1 3/4SM -SN OVC007 00/M01 A2990 RMK AO2 T00001010
KTKV 242155Z AUTO 00000KT 2SM -SN OVC007 00/M01 A2990 RMK AO2 T00001010
KTKV 242135Z AUTO 05003KT 2 1/2SM -SN BKN007 OVC012 00/M01 A2990 RMK AO2 VIS 2V4 T00001010
KTKV 242115Z AUTO 00000KT 3SM -SN OVC012 00/M01 A2990 RMK AO2 T00021009
KTKV 242055Z AUTO 04003KT 10SM BKN008 OVC014 00/M01 A2991 RMK AO2 T00021010